createdAt,value
2022-12-14T00:00:24.806Z,100014.90
2022-12-14T00:05:48.199Z,100013.08
2022-12-14T00:10:51.593Z,100012.36
2022-12-14T00:15:54.974Z,100009.49
2022-12-14T00:21:04.766Z,100004.98
2022-12-14T00:26:23.199Z,100009.27
2022-12-14T00:31:26.752Z,100015.86
2022-12-14T00:36:31.952Z,100016.39
2022-12-14T00:41:35.529Z,100013.97
2022-12-14T00:46:38.895Z,100015.71
2022-12-14T00:51:42.308Z,100018.64
2022-12-14T00:56:45.648Z,100013.36
2022-12-14T01:01:49.198Z,100019.38
2022-12-14T01:06:54.093Z,100017.48
2022-12-14T01:11:57.477Z,100017.81
2022-12-14T01:17:00.914Z,100019.64
2022-12-14T01:22:04.392Z,100021.56
2022-12-14T01:27:07.781Z,100022.56
2022-12-14T01:32:11.434Z,100023.88
2022-12-14T01:37:14.927Z,100026.15
2022-12-14T01:42:18.310Z,100024.36
2022-12-14T01:47:42.543Z,100019.34
2022-12-14T01:52:50.293Z,100020.55
2022-12-14T01:57:58.444Z,100013.58
2022-12-14T02:03:06.917Z,100010.48
2022-12-14T02:08:11.251Z,100010.81
2022-12-14T02:13:33.628Z,100005.63
2022-12-14T02:18:37.003Z,100005.70
2022-12-14T02:24:08.637Z,100003.17
2022-12-14T02:29:23.555Z,100004.17
2022-12-14T02:34:58.768Z,100001.30
2022-12-14T02:40:11.163Z,100000.52
2022-12-14T02:45:31.952Z,100001.34
2022-12-14T02:50:42.285Z,100000.20
2022-12-14T02:55:58.013Z,100004.34
2022-12-14T03:01:01.962Z,99999.94
2022-12-14T03:06:26.285Z,99999.91
2022-12-14T03:11:46.270Z,99999.68
2022-12-14T03:16:52.639Z,99996.64
2022-12-14T03:21:59.825Z,100000.40
2022-12-14T03:27:12.033Z,99991.27
2022-12-14T03:32:23.011Z,99992.41
2022-12-14T03:37:53.303Z,99985.97
2022-12-14T03:43:10.201Z,99983.65
2022-12-14T03:48:33.097Z,99981.10
2022-12-14T03:53:48.006Z,99978.08
2022-12-14T03:59:18.737Z,99974.40
2022-12-14T04:04:50.233Z,99974.86
2022-12-14T04:10:00.442Z,99975.84
2022-12-14T04:15:29.209Z,99967.41
2022-12-14T04:20:47.043Z,99971.12
2022-12-14T04:26:05.906Z,99975.36
2022-12-14T04:31:14.347Z,99976.08
2022-12-14T04:36:43.822Z,99980.15
2022-12-14T04:41:52.702Z,99978.14
2022-12-14T04:47:04.698Z,99983.83
2022-12-14T04:52:13.867Z,99988.15
2022-12-14T04:57:22.112Z,99985.89
2022-12-14T05:02:31.668Z,99984.59
2022-12-14T05:07:41.031Z,99982.03
2022-12-14T05:13:09.357Z,99972.43
2022-12-14T05:18:13.311Z,99971.20
2022-12-14T05:23:17.667Z,99971.06
2022-12-14T05:28:21.027Z,99965.84
2022-12-14T05:33:24.818Z,99968.89
2022-12-14T05:38:28.786Z,99965.73
2022-12-14T05:43:32.139Z,99970.65
2022-12-14T05:48:36.654Z,99973.08
2022-12-14T05:53:41.165Z,99972.20
2022-12-14T05:58:44.583Z,99980.10
2022-12-14T06:03:48.186Z,99977.77
2022-12-14T06:08:52.117Z,99981.50
2022-12-14T06:13:55.600Z,99989.38
2022-12-14T06:19:01.132Z,99983.08
2022-12-14T06:24:06.280Z,99980.05
2022-12-14T06:29:18.782Z,99975.71
2022-12-14T06:34:28.068Z,99973.84
2022-12-14T06:39:33.537Z,99976.70
2022-12-14T06:44:37.755Z,99981.48
2022-12-14T06:49:45.640Z,99978.49
2022-12-14T07:01:36.947Z,99977.97
2022-12-14T07:06:43.791Z,99979.52
2022-12-14T07:12:05.487Z,99984.45
2022-12-14T07:17:11.045Z,99988.58
2022-12-14T07:22:14.716Z,99991.70
2022-12-14T07:27:21.921Z,99986.95
2022-12-14T07:32:30.219Z,99985.45
2022-12-14T07:38:22.716Z,99986.24
2022-12-14T07:43:29.970Z,99991.04
2022-12-14T07:48:34.245Z,99992.30
2022-12-14T07:53:39.118Z,99986.36
2022-12-14T07:58:42.930Z,99989.38
2022-12-14T08:03:55.619Z,99988.77
2022-12-14T08:08:59.349Z,99995.48
2022-12-14T08:14:07.100Z,99991.92
2022-12-14T08:19:13.822Z,99998.38
2022-12-14T08:24:17.330Z,99990.92
2022-12-14T08:29:22.732Z,99991.61
2022-12-14T08:34:26.115Z,99988.69
2022-12-14T08:39:29.648Z,99985.81
2022-12-14T08:44:33.401Z,99988.59
2022-12-14T08:49:37.102Z,99986.80
2022-12-14T08:54:41.057Z,99986.86
2022-12-14T09:00:01.385Z,99992.48
2022-12-14T09:05:06.704Z,99991.47
2022-12-14T09:10:14.092Z,99992.27
2022-12-14T09:15:17.900Z,99991.86
2022-12-14T09:20:21.319Z,99987.59
2022-12-14T09:25:25.012Z,99986.52
2022-12-14T09:30:28.674Z,99985.63
2022-12-14T09:35:32.207Z,99986.11
2022-12-14T09:40:35.980Z,99998.45
2022-12-14T09:45:50.970Z,100002.48
2022-12-14T09:50:55.215Z,100007.42
2022-12-14T09:55:59.361Z,99999.14
2022-12-14T10:01:33.568Z,99992.34
2022-12-14T10:07:08.287Z,99983.27
2022-12-14T10:12:34.045Z,99983.21
2022-12-14T10:18:00.602Z,99978.83
2022-12-14T10:23:05.323Z,99964.29
2022-12-14T10:28:32.420Z,99954.56
2022-12-14T10:33:43.051Z,99955.64
2022-12-14T10:38:59.850Z,99954.04
2022-12-14T10:44:17.990Z,99946.63
2022-12-14T10:49:38.964Z,99938.02
2022-12-14T10:55:08.178Z,99932.40
2022-12-14T11:00:24.129Z,99931.09
2022-12-14T11:05:40.385Z,99926.62
2022-12-14T11:10:43.983Z,99913.64
2022-12-14T11:15:51.397Z,99903.64
2022-12-14T11:20:56.904Z,99899.61
2022-12-14T11:26:04.148Z,99895.73
2022-12-14T11:31:26.344Z,99886.52
2022-12-14T11:36:33.484Z,99886.48
2022-12-14T11:41:39.641Z,99881.09
2022-12-14T11:46:46.587Z,99877.30
2022-12-14T11:52:05.309Z,99875.23
2022-12-14T11:57:40.636Z,99868.66
2022-12-14T12:02:54.223Z,99856.74
2022-12-14T12:07:59.760Z,99851.43
2022-12-14T12:13:07.610Z,99839.09
2022-12-14T12:18:41.651Z,99834.53
2022-12-14T12:23:59.809Z,99826.84
2022-12-14T12:29:29.782Z,99830.90
2022-12-14T12:35:04.110Z,99827.84
2022-12-14T12:40:28.691Z,99827.34
2022-12-14T12:45:48.240Z,99824.73
2022-12-14T12:50:57.273Z,99825.27
2022-12-14T12:56:19.997Z,99822.11
2022-12-14T13:01:55.884Z,99821.77
2022-12-14T13:07:29.607Z,99814.78
2022-12-14T13:12:42.349Z,99819.11
2022-12-14T13:17:53.747Z,99823.43
2022-12-14T13:23:36.468Z,99825.66
2022-12-14T13:28:51.719Z,99819.91
2022-12-14T13:34:18.862Z,99824.36
2022-12-14T13:39:50.588Z,99815.91
2022-12-14T13:44:57.912Z,99810.44
2022-12-14T13:50:34.651Z,99803.90
2022-12-14T13:55:36.439Z,99806.92
2022-12-14T14:00:46.254Z,99801.64
2022-12-14T14:06:00.873Z,99792.26
2022-12-14T14:11:37.044Z,99794.92
2022-12-14T14:16:54.000Z,99790.02
2022-12-14T14:22:26.443Z,99783.71
2022-12-14T14:28:00.375Z,99781.86
2022-12-14T14:33:45.614Z,99767.88
2022-12-14T14:38:51.469Z,99763.71
2022-12-14T14:43:59.667Z,99760.23
2022-12-14T14:49:04.524Z,99761.88
2022-12-14T14:54:56.090Z,99756.74
2022-12-14T14:59:51.345Z,99746.95
2022-12-14T15:04:57.170Z,99749.41
2022-12-14T15:10:20.658Z,99751.59
2022-12-14T15:15:47.589Z,99746.52
2022-12-14T15:21:02.695Z,99743.50
2022-12-14T15:26:29.084Z,99739.82
2022-12-14T15:31:33.753Z,99742.80
2022-12-14T15:36:43.145Z,99744.09
2022-12-14T15:41:46.632Z,99748.45
2022-12-14T15:46:56.113Z,99742.52
2022-12-14T15:51:59.931Z,99740.99
2022-12-14T15:57:04.036Z,99731.53
2022-12-14T16:02:32.714Z,99724.15
2022-12-14T16:07:39.748Z,99721.10
2022-12-14T16:12:49.843Z,99715.91
2022-12-14T16:18:02.733Z,99706.30
2022-12-14T16:23:23.931Z,99702.63
2022-12-14T16:28:35.390Z,99700.45
2022-12-14T16:33:43.262Z,99691.71
2022-12-14T16:39:00.980Z,99688.31
2022-12-14T16:44:08.213Z,99676.67
2022-12-14T16:49:22.665Z,99669.98
2022-12-14T16:54:32.327Z,99667.09
2022-12-14T16:59:43.347Z,99656.77
2022-12-14T17:04:47.298Z,99650.42
2022-12-14T17:09:51.087Z,99644.92
2022-12-14T17:14:54.588Z,99639.88
2022-12-14T17:19:58.351Z,99641.59
2022-12-14T17:25:03.047Z,99640.88
2022-12-14T17:30:08.155Z,99632.79
2022-12-14T17:35:25.989Z,99628.09
2022-12-14T17:40:29.523Z,99620.56
2022-12-14T17:45:33.122Z,99614.65
2022-12-14T17:50:36.749Z,99617.45
2022-12-14T17:55:41.882Z,99615.88
2022-12-14T18:01:00.510Z,99608.63
2022-12-14T18:06:05.032Z,99597.54
2022-12-14T18:11:13.795Z,99589.72
2022-12-14T18:16:20.957Z,99588.60
2022-12-14T18:21:31.183Z,99589.11
2022-12-14T18:26:37.386Z,99590.73
2022-12-14T18:31:41.181Z,99578.95
2022-12-14T18:36:46.055Z,99573.23
2022-12-14T18:41:49.786Z,99572.84
2022-12-14T18:46:53.279Z,99570.39
2022-12-14T18:51:57.687Z,99563.29
2022-12-14T18:57:01.295Z,99563.83
2022-12-14T19:02:05.097Z,99560.84
2022-12-14T19:07:08.987Z,99553.40
2022-12-14T19:12:12.499Z,99546.23
2022-12-14T19:17:18.853Z,99543.49
2022-12-14T19:22:27.367Z,99545.48
2022-12-14T19:28:11.443Z,99544.42
2022-12-14T19:32:56.307Z,99547.98
2022-12-14T19:37:59.689Z,99544.18
2022-12-14T19:43:03.243Z,99545.57
2022-12-14T19:48:12.785Z,99537.64
2022-12-14T19:53:23.027Z,99539.27
2022-12-14T19:58:28.926Z,99536.39
2022-12-14T20:03:33.247Z,99532.61
2022-12-14T20:08:38.091Z,99525.38
2022-12-14T20:13:41.816Z,99523.36
2022-12-14T20:18:47.302Z,99518.31
2022-12-14T20:23:51.185Z,99517.04
2022-12-14T20:28:57.572Z,99523.41
2022-12-14T20:34:07.430Z,99527.45
2022-12-14T20:39:10.867Z,99535.65
2022-12-14T20:44:16.576Z,99545.48
2022-12-14T20:49:21.801Z,99543.02
2022-12-14T20:54:25.945Z,99537.73
2022-12-14T20:59:30.404Z,99538.20
2022-12-14T21:04:33.779Z,99533.95
2022-12-14T21:09:37.616Z,99531.46
2022-12-14T21:14:48.292Z,99536.10
2022-12-14T21:19:54.300Z,99530.79
2022-12-14T21:25:03.630Z,99523.30
2022-12-14T21:30:11.937Z,99518.97
2022-12-14T21:35:18.122Z,99516.04
2022-12-14T21:40:40.791Z,99507.83
2022-12-14T21:45:46.102Z,99501.88
2022-12-14T21:50:50.392Z,99499.48
2022-12-14T21:56:13.752Z,99497.14
2022-12-14T22:01:18.762Z,99491.34
2022-12-14T22:06:22.296Z,99487.64
2022-12-14T22:11:25.767Z,99489.71
2022-12-14T22:16:34.890Z,99481.02
2022-12-14T22:21:41.493Z,99477.05
2022-12-14T22:26:45.942Z,99475.48
2022-12-14T22:31:52.358Z,99471.48
2022-12-14T22:36:56.531Z,99464.27
2022-12-14T22:41:59.993Z,99453.16
2022-12-14T22:47:03.253Z,99448.81
2022-12-14T22:52:08.675Z,99445.17
2022-12-14T22:57:17.807Z,99442.30
2022-12-14T23:02:22.251Z,99437.08
2022-12-14T23:07:25.788Z,99423.58
2022-12-14T23:12:47.649Z,99421.07
2022-12-14T23:18:13.277Z,99422.05
2022-12-14T23:23:35.525Z,99417.81
2022-12-14T23:28:58.404Z,99417.42
2022-12-14T23:34:20.366Z,99414.94
2022-12-14T23:39:42.251Z,99412.54
2022-12-14T23:45:04.658Z,99414.40
2022-12-14T23:50:27.235Z,99415.27
2022-12-14T23:55:49.752Z,99411.41
